sensor_id;sensor_type;location;lat;lon;timestamp;pressure;altitude;pressure_sealevel;temperature;humidity
21290;BME280;10804;48.988;2.408;2022-12-18T00:00:08;101768.81;;;2.45;62.42
21290;BME280;10804;48.988;2.408;2022-12-18T00:02:43;101775.59;;;2.42;62.87
21290;BME280;10804;48.988;2.408;2022-12-18T00:05:10;101769.66;;;2.44;62.78
21290;BME280;10804;48.988;2.408;2022-12-18T00:07:45;101767.84;;;2.40;62.70
21290;BME280;10804;48.988;2.408;2022-12-18T00:10:12;101766.94;;;2.38;62.71
21290;BME280;10804;48.988;2.408;2022-12-18T00:12:41;101771.25;;;2.38;62.94
21290;BME280;10804;48.988;2.408;2022-12-18T00:15:09;101772.97;;;2.39;62.85
21290;BME280;10804;48.988;2.408;2022-12-18T00:17:36;101767.78;;;2.37;62.82
21290;BME280;10804;48.988;2.408;2022-12-18T00:20:04;101760.94;;;2.38;62.77
21290;BME280;10804;48.988;2.408;2022-12-18T00:22:31;101758.22;;;2.32;62.77
21290;BME280;10804;48.988;2.408;2022-12-18T00:24:59;101757.53;;;2.39;62.50
21290;BME280;10804;48.988;2.408;2022-12-18T00:27:26;101763.41;;;2.35;62.87
21290;BME280;10804;48.988;2.408;2022-12-18T00:29:55;101748.81;;;2.34;62.72
21290;BME280;10804;48.988;2.408;2022-12-18T00:32:22;101755.69;;;2.35;62.84
21290;BME280;10804;48.988;2.408;2022-12-18T00:34:49;101750.56;;;2.35;62.81
21290;BME280;10804;48.988;2.408;2022-12-18T00:37:17;101745.34;;;2.32;62.64
21290;BME280;10804;48.988;2.408;2022-12-18T00:39:44;101752.97;;;2.29;62.95
21290;BME280;10804;48.988;2.408;2022-12-18T00:42:11;101755.66;;;2.32;62.68
21290;BME280;10804;48.988;2.408;2022-12-18T00:44:57;101756.53;;;2.34;62.92
21290;BME280;10804;48.988;2.408;2022-12-18T00:47:24;101757.34;;;2.31;62.64
21290;BME280;10804;48.988;2.408;2022-12-18T00:49:52;101762.41;;;2.28;62.92
21290;BME280;10804;48.988;2.408;2022-12-18T00:52:19;101758.13;;;2.29;62.67
21290;BME280;10804;48.988;2.408;2022-12-18T00:54:47;101757.22;;;2.27;62.84
21290;BME280;10804;48.988;2.408;2022-12-18T00:57:14;101749.50;;;2.27;62.61
21290;BME280;10804;48.988;2.408;2022-12-18T00:59:42;101751.13;;;2.23;62.66
21290;BME280;10804;48.988;2.408;2022-12-18T01:02:15;101752.06;;;2.25;62.91
21290;BME280;10804;48.988;2.408;2022-12-18T01:04:42;101741.78;;;2.27;62.80
21290;BME280;10804;48.988;2.408;2022-12-18T01:07:10;101741.69;;;2.22;62.56
21290;BME280;10804;48.988;2.408;2022-12-18T01:09:37;101718.47;;;2.21;62.72
21290;BME280;10804;48.988;2.408;2022-12-18T01:12:06;101729.69;;;2.23;62.85
21290;BME280;10804;48.988;2.408;2022-12-18T01:14:33;101729.59;;;2.20;62.79
21290;BME280;10804;48.988;2.408;2022-12-18T01:17:00;101738.09;;;2.16;62.92
21290;BME280;10804;48.988;2.408;2022-12-18T01:19:30;101742.34;;;2.15;62.90
21290;BME280;10804;48.988;2.408;2022-12-18T01:21:57;101734.75;;;2.20;62.86
21290;BME280;10804;48.988;2.408;2022-12-18T01:24:25;101739.78;;;2.14;62.85
21290;BME280;10804;48.988;2.408;2022-12-18T01:26:52;101738.94;;;2.16;63.09
21290;BME280;10804;48.988;2.408;2022-12-18T01:29:19;101748.31;;;2.13;62.92
21290;BME280;10804;48.988;2.408;2022-12-18T01:31:46;101739.84;;;2.17;62.89
21290;BME280;10804;48.988;2.408;2022-12-18T01:34:14;101738.16;;;2.19;62.90
21290;BME280;10804;48.988;2.408;2022-12-18T01:36:42;101730.28;;;2.11;62.70
21290;BME280;10804;48.988;2.408;2022-12-18T01:39:11;101737.22;;;2.14;62.72
21290;BME280;10804;48.988;2.408;2022-12-18T01:41:42;101741.34;;;2.09;62.81
21290;BME280;10804;48.988;2.408;2022-12-18T01:47:37;101724.34;;;2.14;62.51
21290;BME280;10804;48.988;2.408;2022-12-18T01:50:09;101719.78;;;2.04;62.89
21290;BME280;10804;48.988;2.408;2022-12-18T01:52:41;101722.44;;;2.07;62.79
21290;BME280;10804;48.988;2.408;2022-12-18T01:55:11;101724.13;;;2.06;62.95
21290;BME280;10804;48.988;2.408;2022-12-18T01:57:40;101716.47;;;2.09;62.92
21290;BME280;10804;48.988;2.408;2022-12-18T02:00:11;101719.88;;;2.07;62.96
21290;BME280;10804;48.988;2.408;2022-12-18T02:02:41;101720.63;;;2.03;62.60
21290;BME280;10804;48.988;2.408;2022-12-18T02:05:11;101701.63;;;1.98;62.77
21290;BME280;10804;48.988;2.408;2022-12-18T02:07:45;101689.53;;;1.94;62.91
21290;BME280;10804;48.988;2.408;2022-12-18T02:10:26;101703.44;;;2.02;63.06
21290;BME280;10804;48.988;2.408;2022-12-18T02:12:59;101666.19;;;1.86;62.43
21290;BME280;10804;48.988;2.408;2022-12-18T02:15:33;101709.44;;;2.02;62.65
21290;BME280;10804;48.988;2.408;2022-12-18T02:18:06;101665.06;;;1.75;62.69
21290;BME280;10804;48.988;2.408;2022-12-18T02:20:46;101712.00;;;2.01;62.81
21290;BME280;10804;48.988;2.408;2022-12-18T02:23:35;101704.13;;;1.95;62.94
21290;BME280;10804;48.988;2.408;2022-12-18T02:26:14;101699.94;;;1.98;62.80
21290;BME280;10804;48.988;2.408;2022-12-18T02:28:46;101692.25;;;2.00;62.77
21290;BME280;10804;48.988;2.408;2022-12-18T02:31:19;101695.59;;;1.96;62.66
21290;BME280;10804;48.988;2.408;2022-12-18T02:33:49;101661.63;;;1.75;62.62
21290;BME280;10804;48.988;2.408;2022-12-18T02:36:19;101687.88;;;1.96;62.77
21290;BME280;10804;48.988;2.408;2022-12-18T02:38:50;101684.28;;;1.89;62.94
21290;BME280;10804;48.988;2.408;2022-12-18T02:41:21;101669.69;;;1.88;62.71
21290;BME280;10804;48.988;2.408;2022-12-18T02:43:49;101682.66;;;1.93;62.73
21290;BME280;10804;48.988;2.408;2022-12-18T02:46:26;101673.13;;;1.89;62.80
21290;BME280;10804;48.988;2.408;2022-12-18T02:49:02;101656.53;;;1.76;62.96
21290;BME280;10804;48.988;2.408;2022-12-18T02:51:42;101667.91;;;1.86;62.56
21290;BME280;10804;48.988;2.408;2022-12-18T02:54:21;101665.34;;;1.86;62.75
21290;BME280;10804;48.988;2.408;2022-12-18T02:56:57;101667.19;;;1.91;62.73
21290;BME280;10804;48.988;2.408;2022-12-18T02:59:33;101665.34;;;1.86;62.73
21290;BME280;10804;48.988;2.408;2022-12-18T03:02:07;101635.69;;;1.66;62.58
21290;BME280;10804;48.988;2.408;2022-12-18T03:04:40;101664.47;;;1.85;62.61
21290;BME280;10804;48.988;2.408;2022-12-18T03:07:16;101664.41;;;1.82;62.83
21290;BME280;10804;48.988;2.408;2022-12-18T03:09:50;101653.22;;;1.82;62.79
21290;BME280;10804;48.988;2.408;2022-12-18T03:12:29;101641.88;;;1.72;62.59
21290;BME280;10804;48.988;2.408;2022-12-18T03:15:02;101653.16;;;1.79;62.72
21290;BME280;10804;48.988;2.408;2022-12-18T03:17:32;101657.59;;;1.84;62.80
21290;BME280;10804;48.988;2.408;2022-12-18T03:20:04;101669.44;;;1.79;62.93
21290;BME280;10804;48.988;2.408;2022-12-18T03:22:35;101660.03;;;1.80;62.84
21290;BME280;10804;48.988;2.408;2022-12-18T03:25:08;101657.53;;;1.83;62.70
21290;BME280;10804;48.988;2.408;2022-12-18T03:27:43;101614.84;;;1.54;62.96
21290;BME280;10804;48.988;2.408;2022-12-18T03:30:16;101653.81;;;1.70;62.57
21290;BME280;10804;48.988;2.408;2022-12-18T03:32:47;101660.69;;;1.71;62.52
21290;BME280;10804;48.988;2.408;2022-12-18T03:35:19;101639.06;;;1.63;62.60
21290;BME280;10804;48.988;2.408;2022-12-18T03:37:49;101657.41;;;1.77;62.67
21290;BME280;10804;48.988;2.408;2022-12-18T03:40:20;101665.03;;;1.74;62.86
21290;BME280;10804;48.988;2.408;2022-12-18T03:42:57;101663.28;;;1.73;62.71
21290;BME280;10804;48.988;2.408;2022-12-18T03:45:34;101619.16;;;1.55;62.65
21290;BME280;10804;48.988;2.408;2022-12-18T03:48:05;101654.84;;;1.77;62.50
21290;BME280;10804;48.988;2.408;2022-12-18T03:50:45;101650.50;;;1.74;62.35
21290;BME280;10804;48.988;2.408;2022-12-18T03:53:21;101655.47;;;1.68;62.61
21290;BME280;10804;48.988;2.408;2022-12-18T03:55:52;101623.41;;;1.53;62.57
21290;BME280;10804;48.988;2.408;2022-12-18T03:58:24;101649.53;;;1.71;62.41
21290;BME280;10804;48.988;2.408;2022-12-18T04:01:07;101646.19;;;1.73;62.55
21290;BME280;10804;48.988;2.408;2022-12-18T04:03:37;101624.34;;;1.58;62.85
21290;BME280;10804;48.988;2.408;2022-12-18T04:06:07;101627.81;;;1.60;62.67
21290;BME280;10804;48.988;2.408;2022-12-18T04:08:35;101608.94;;;1.58;62.88
21290;BME280;10804;48.988;2.408;2022-12-18T04:11:06;101621.78;;;1.58;62.39
21290;BME280;10804;48.988;2.408;2022-12-18T04:13:37;101633.09;;;1.64;62.64
21290;BME280;10804;48.988;2.408;2022-12-18T04:16:08;101600.91;;;1.44;62.69
21290;BME280;10804;48.988;2.408;2022-12-18T04:18:40;101622.78;;;1.63;62.41
21290;BME280;10804;48.988;2.408;2022-12-18T04:21:08;101635.63;;;1.63;62.78
21290;BME280;10804;48.988;2.408;2022-12-18T04:23:37;101637.44;;;1.67;62.53
21290;BME280;10804;48.988;2.408;2022-12-18T04:26:04;101633.06;;;1.63;62.78
21290;BME280;10804;48.988;2.408;2022-12-18T04:28:56;101627.75;;;1.57;62.68
21290;BME280;10804;48.988;2.408;2022-12-18T04:31:24;101630.44;;;1.61;62.73
21290;BME280;10804;48.988;2.408;2022-12-18T04:33:52;101617.25;;;1.48;62.76
21290;BME280;10804;48.988;2.408;2022-12-18T04:36:20;101628.44;;;1.50;62.69
21290;BME280;10804;48.988;2.408;2022-12-18T04:38:47;101623.25;;;1.47;62.87
21290;BME280;10804;48.988;2.408;2022-12-18T04:41:16;101632.06;;;1.58;62.53
21290;BME280;10804;48.988;2.408;2022-12-18T04:43:47;101626.66;;;1.46;62.49
21290;BME280;10804;48.988;2.408;2022-12-18T04:46:16;101654.38;;;1.59;62.23
21290;BME280;10804;48.988;2.408;2022-12-18T04:48:46;101649.00;;;1.50;62.66
21290;BME280;10804;48.988;2.408;2022-12-18T04:51:14;101647.31;;;1.52;62.90
21290;BME280;10804;48.988;2.408;2022-12-18T04:53:41;101641.19;;;1.45;62.87
21290;BME280;10804;48.988;2.408;2022-12-18T04:56:11;101648.16;;;1.51;62.69
21290;BME280;10804;48.988;2.408;2022-12-18T04:58:40;101639.59;;;1.50;62.74
21290;BME280;10804;48.988;2.408;2022-12-18T05:01:08;101628.44;;;1.50;62.73
21290;BME280;10804;48.988;2.408;2022-12-18T05:03:38;101637.88;;;1.51;62.58
21290;BME280;10804;48.988;2.408;2022-12-18T05:06:06;101649.09;;;1.53;62.56
21290;BME280;10804;48.988;2.408;2022-12-18T05:08:34;101640.56;;;1.54;62.42
21290;BME280;10804;48.988;2.408;2022-12-18T05:11:03;101645.69;;;1.54;62.61
21290;BME280;10804;48.988;2.408;2022-12-18T05:13:32;101636.81;;;1.43;62.62
21290;BME280;10804;48.988;2.408;2022-12-18T05:15:59;101648.06;;;1.46;62.56
21290;BME280;10804;48.988;2.408;2022-12-18T05:18:27;101631.47;;;1.34;62.62
21290;BME280;10804;48.988;2.408;2022-12-18T05:20:57;101651.50;;;1.47;62.55
21290;BME280;10804;48.988;2.408;2022-12-18T05:23:24;101645.44;;;1.45;62.62
21290;BME280;10804;48.988;2.408;2022-12-18T05:25:53;101647.22;;;1.47;62.67
21290;BME280;10804;48.988;2.408;2022-12-18T05:28:23;101640.22;;;1.42;62.52
21290;BME280;10804;48.988;2.408;2022-12-18T05:30:54;101662.53;;;1.43;62.53
21290;BME280;10804;48.988;2.408;2022-12-18T05:33:23;101655.59;;;1.39;62.71
21290;BME280;10804;48.988;2.408;2022-12-18T05:35:51;101665.22;;;1.47;62.34
21290;BME280;10804;48.988;2.408;2022-12-18T05:38:21;101666.72;;;1.39;62.62
21290;BME280;10804;48.988;2.408;2022-12-18T05:40:49;101665.94;;;1.42;62.52
21290;BME280;10804;48.988;2.408;2022-12-18T05:43:18;101658.16;;;1.40;62.53
21290;BME280;10804;48.988;2.408;2022-12-18T05:45:46;101666.03;;;1.46;62.50
21290;BME280;10804;48.988;2.408;2022-12-18T05:48:13;101644.25;;;1.31;62.59
21290;BME280;10804;48.988;2.408;2022-12-18T05:50:42;101662.34;;;1.37;62.51
21290;BME280;10804;48.988;2.408;2022-12-18T05:53:12;101647.00;;;1.38;62.37
21290;BME280;10804;48.988;2.408;2022-12-18T05:55:41;101652.97;;;1.37;62.58
21290;BME280;10804;48.988;2.408;2022-12-18T05:58:10;101646.94;;;1.37;62.36
21290;BME280;10804;48.988;2.408;2022-12-18T06:00:40;101652.91;;;1.34;62.58
21290;BME280;10804;48.988;2.408;2022-12-18T06:03:09;101636.47;;;1.29;62.75
21290;BME280;10804;48.988;2.408;2022-12-18T06:05:39;101634.94;;;1.36;62.17
21290;BME280;10804;48.988;2.408;2022-12-18T06:08:07;101631.63;;;1.40;62.36
21290;BME280;10804;48.988;2.408;2022-12-18T06:10:34;101611.50;;;1.24;62.60
21290;BME280;10804;48.988;2.408;2022-12-18T06:13:04;101635.72;;;1.33;62.54
21290;BME280;10804;48.988;2.408;2022-12-18T06:15:31;101622.69;;;1.26;62.72
21290;BME280;10804;48.988;2.408;2022-12-18T06:18:00;101634.03;;;1.34;62.48
21290;BME280;10804;48.988;2.408;2022-12-18T06:20:27;101593.13;;;1.09;62.57
21290;BME280;10804;48.988;2.408;2022-12-18T06:22:55;101624.59;;;1.33;62.51
21290;BME280;10804;48.988;2.408;2022-12-18T06:25:22;101626.25;;;1.31;62.52
21290;BME280;10804;48.988;2.408;2022-12-18T06:27:49;101628.00;;;1.32;62.53
21290;BME280;10804;48.988;2.408;2022-12-18T06:30:19;101630.56;;;1.32;62.44
21290;BME280;10804;48.988;2.408;2022-12-18T06:32:48;101631.47;;;1.34;62.45
21290;BME280;10804;48.988;2.408;2022-12-18T06:35:15;101638.06;;;1.24;62.59
21290;BME280;10804;48.988;2.408;2022-12-18T06:37:43;101624.47;;;1.28;62.45
21290;BME280;10804;48.988;2.408;2022-12-18T06:40:10;101637.38;;;1.30;62.45
21290;BME280;10804;48.988;2.408;2022-12-18T06:42:38;101599.88;;;1.05;62.52
21290;BME280;10804;48.988;2.408;2022-12-18T06:45:06;101588.84;;;1.08;62.49
21290;BME280;10804;48.988;2.408;2022-12-18T06:47:35;101628.63;;;1.23;62.61
21290;BME280;10804;48.988;2.408;2022-12-18T06:50:02;101624.53;;;1.30;62.52
21290;BME280;10804;48.988;2.408;2022-12-18T06:52:31;101626.25;;;1.31;62.52
21290;BME280;10804;48.988;2.408;2022-12-18T06:54:59;101622.84;;;1.32;62.45
21290;BME280;10804;48.988;2.408;2022-12-18T06:57:27;101611.75;;;1.33;62.42
21290;BME280;10804;48.988;2.408;2022-12-18T06:59:54;101613.31;;;1.28;62.46
21290;BME280;10804;48.988;2.408;2022-12-18T07:02:22;101605.72;;;1.31;62.24
21290;BME280;10804;48.988;2.408;2022-12-18T07:04:50;101605.59;;;1.28;62.34
21290;BME280;10804;48.988;2.408;2022-12-18T07:07:18;101585.03;;;1.26;62.48
21290;BME280;10804;48.988;2.408;2022-12-18T07:09:45;101586.72;;;1.26;62.28
21290;BME280;10804;48.988;2.408;2022-12-18T07:12:13;101589.34;;;1.27;62.38
21290;BME280;10804;48.988;2.408;2022-12-18T07:14:40;101592.75;;;1.28;62.21
21290;BME280;10804;48.988;2.408;2022-12-18T07:17:07;101603.97;;;1.31;62.33
21290;BME280;10804;48.988;2.408;2022-12-18T07:19:35;101598.66;;;1.24;62.31
21290;BME280;10804;48.988;2.408;2022-12-18T07:22:04;101600.44;;;1.26;62.44
21290;BME280;10804;48.988;2.408;2022-12-18T07:24:32;101595.31;;;1.28;62.33
21290;BME280;10804;48.988;2.408;2022-12-18T07:26:59;101577.16;;;1.20;62.09
21290;BME280;10804;48.988;2.408;2022-12-18T07:29:27;101596.06;;;1.22;62.23
21290;BME280;10804;48.988;2.408;2022-12-18T07:31:58;101596.09;;;1.24;62.51
21290;BME280;10804;48.988;2.408;2022-12-18T07:34:25;101561.47;;;1.10;62.17
21290;BME280;10804;48.988;2.408;2022-12-18T07:36:53;101597.06;;;1.29;62.17
21290;BME280;10804;48.988;2.408;2022-12-18T07:39:21;101595.16;;;1.22;62.12
21290;BME280;10804;48.988;2.408;2022-12-18T07:41:49;101610.69;;;1.25;62.54
21290;BME280;10804;48.988;2.408;2022-12-18T07:44:49;101611.47;;;1.22;62.56
21290;BME280;10804;48.988;2.408;2022-12-18T07:47:16;101614.94;;;1.24;62.49
21290;BME280;10804;48.988;2.408;2022-12-18T07:49:43;101616.75;;;1.28;62.30
21290;BME280;10804;48.988;2.408;2022-12-18T07:52:11;101621.03;;;1.28;62.13
21290;BME280;10804;48.988;2.408;2022-12-18T07:54:41;101618.25;;;1.20;62.23
21290;BME280;10804;48.988;2.408;2022-12-18T07:57:08;101592.19;;;1.05;62.18
21290;BME280;10804;48.988;2.408;2022-12-18T07:59:36;101617.47;;;1.23;62.51
21290;BME280;10804;48.988;2.408;2022-12-18T08:02:04;101616.53;;;1.19;62.48
21290;BME280;10804;48.988;2.408;2022-12-18T08:04:31;101601.97;;;1.20;62.40
21290;BME280;10804;48.988;2.408;2022-12-18T08:07:08;101563.81;;;1.01;62.19
21290;BME280;10804;48.988;2.408;2022-12-18T08:09:36;101602.03;;;1.21;62.27
21290;BME280;10804;48.988;2.408;2022-12-18T08:12:05;101582.09;;;1.11;62.26
21290;BME280;10804;48.988;2.408;2022-12-18T08:14:33;101593.53;;;1.24;62.27
21290;BME280;10804;48.988;2.408;2022-12-18T08:17:00;101549.03;;;0.92;62.46
21290;BME280;10804;48.988;2.408;2022-12-18T08:19:27;101594.31;;;1.21;62.23
21290;BME280;10804;48.988;2.408;2022-12-18T08:21:55;101604.75;;;1.27;62.20
21290;BME280;10804;48.988;2.408;2022-12-18T08:24:23;101607.34;;;1.29;62.29
21290;BME280;10804;48.988;2.408;2022-12-18T08:26:50;101616.00;;;1.32;62.18
21290;BME280;10804;48.988;2.408;2022-12-18T08:29:19;101607.34;;;1.29;62.18
21290;BME280;10804;48.988;2.408;2022-12-18T08:31:47;101620.16;;;1.27;62.03
21290;BME280;10804;48.988;2.408;2022-12-18T08:34:14;101589.78;;;1.11;62.03
21290;BME280;10804;48.988;2.408;2022-12-18T08:36:41;101617.72;;;1.32;62.08
21290;BME280;10804;48.988;2.408;2022-12-18T08:39:09;101623.41;;;1.20;62.25
21290;BME280;10804;48.988;2.408;2022-12-18T08:41:37;101625.09;;;1.20;62.20
21290;BME280;10804;48.988;2.408;2022-12-18T08:44:04;101641.69;;;1.32;62.17
21290;BME280;10804;48.988;2.408;2022-12-18T08:46:50;101627.81;;;1.26;62.34
21290;BME280;10804;48.988;2.408;2022-12-18T08:49:18;101633.13;;;1.32;62.12
21290;BME280;10804;48.988;2.408;2022-12-18T08:51:45;101643.41;;;1.32;62.11
21290;BME280;10804;48.988;2.408;2022-12-18T08:54:13;101646.94;;;1.35;62.16
21290;BME280;10804;48.988;2.408;2022-12-18T08:56:40;101646.88;;;1.34;62.13
21290;BME280;10804;48.988;2.408;2022-12-18T08:59:08;101644.41;;;1.38;62.25
21290;BME280;10804;48.988;2.408;2022-12-18T09:01:35;101639.22;;;1.35;62.14
21290;BME280;10804;48.988;2.408;2022-12-18T09:04:04;101650.50;;;1.42;61.98
21290;BME280;10804;48.988;2.408;2022-12-18T09:06:32;101653.06;;;1.42;62.06
21290;BME280;10804;48.988;2.408;2022-12-18T09:08:59;101652.25;;;1.43;61.79
21290;BME280;10804;48.988;2.408;2022-12-18T09:11:27;101647.94;;;1.42;62.04
21290;BME280;10804;48.988;2.408;2022-12-18T09:13:56;101639.41;;;1.43;61.96
21290;BME280;10804;48.988;2.408;2022-12-18T09:16:25;101624.66;;;1.36;62.02
21290;BME280;10804;48.988;2.408;2022-12-18T09:18:54;101628.22;;;1.41;61.96
21290;BME280;10804;48.988;2.408;2022-12-18T09:21:28;101631.78;;;1.46;62.07
21290;BME280;10804;48.988;2.408;2022-12-18T09:23:56;101604.25;;;1.42;61.92
21290;BME280;10804;48.988;2.408;2022-12-18T09:26:25;101619.91;;;1.51;61.89
21290;BME280;10804;48.988;2.408;2022-12-18T09:29:03;101642.13;;;1.49;62.06
21290;BME280;10804;48.988;2.408;2022-12-18T09:31:31;101644.03;;;1.56;61.82
21290;BME280;10804;48.988;2.408;2022-12-18T09:33:59;101607.72;;;1.42;61.76
21290;BME280;10804;48.988;2.408;2022-12-18T09:36:28;101609.59;;;1.49;61.91
21290;BME280;10804;48.988;2.408;2022-12-18T09:38:55;101624.31;;;1.56;61.86
21290;BME280;10804;48.988;2.408;2022-12-18T09:41:33;101620.06;;;1.57;61.82
21290;BME280;10804;48.988;2.408;2022-12-18T09:44:13;101627.81;;;1.58;61.71
21290;BME280;10804;48.988;2.408;2022-12-18T09:46:44;101632.16;;;1.61;61.66
21290;BME280;10804;48.988;2.408;2022-12-18T09:49:15;101598.38;;;1.46;61.71
21290;BME280;10804;48.988;2.408;2022-12-18T09:51:47;101591.47;;;1.43;61.95
21290;BME280;10804;48.988;2.408;2022-12-18T09:54:20;101612.53;;;1.64;61.65
21290;BME280;10804;48.988;2.408;2022-12-18T09:56:52;101603.88;;;1.61;61.80
21290;BME280;10804;48.988;2.408;2022-12-18T09:59:25;101613.50;;;1.69;61.93
21290;BME280;10804;48.988;2.408;2022-12-18T10:01:54;101619.47;;;1.68;61.62
21290;BME280;10804;48.988;2.408;2022-12-18T10:04:23;101624.50;;;1.64;61.57
21290;BME280;10804;48.988;2.408;2022-12-18T10:06:56;101616.03;;;1.68;61.83
21290;BME280;10804;48.988;2.408;2022-12-18T10:09:30;101611.88;;;1.73;61.81
21290;BME280;10804;48.988;2.408;2022-12-18T10:12:07;101609.41;;;1.77;61.91
21290;BME280;10804;48.988;2.408;2022-12-18T10:14:42;101601.69;;;1.76;61.54
21290;BME280;10804;48.988;2.408;2022-12-18T10:17:20;101545.22;;;1.45;61.61
21290;BME280;10804;48.988;2.408;2022-12-18T10:19:56;101601.75;;;1.79;61.49
21290;BME280;10804;48.988;2.408;2022-12-18T10:22:41;101601.78;;;1.80;61.66
21290;BME280;10804;48.988;2.408;2022-12-18T10:25:19;101599.13;;;1.77;61.43
21290;BME280;10804;48.988;2.408;2022-12-18T10:27:51;101610.47;;;1.85;61.58
21290;BME280;10804;48.988;2.408;2022-12-18T10:30:22;101606.25;;;1.87;61.47
21290;BME280;10804;48.988;2.408;2022-12-18T10:32:50;101591.63;;;1.85;61.38
21290;BME280;10804;48.988;2.408;2022-12-18T10:35:20;101570.75;;;1.73;61.49
21290;BME280;10804;48.988;2.408;2022-12-18T10:38:03;101594.28;;;1.91;61.45
21290;BME280;10804;48.988;2.408;2022-12-18T10:40:31;101587.53;;;1.94;61.54
21290;BME280;10804;48.988;2.408;2022-12-18T10:43:11;101586.59;;;1.91;61.27
21290;BME280;10804;48.988;2.408;2022-12-18T10:45:39;101590.22;;;1.99;61.30
21290;BME280;10804;48.988;2.408;2022-12-18T10:48:18;101573.81;;;1.94;61.36
21290;BME280;10804;48.988;2.408;2022-12-18T10:50:49;101591.13;;;2.01;61.52
21290;BME280;10804;48.988;2.408;2022-12-18T10:53:21;101563.56;;;1.95;61.60
21290;BME280;10804;48.988;2.408;2022-12-18T10:55:51;101571.44;;;2.03;61.45
21290;BME280;10804;48.988;2.408;2022-12-18T10:58:23;101568.16;;;2.10;61.11
21290;BME280;10804;48.988;2.408;2022-12-18T11:01:03;101576.75;;;2.10;61.49
21290;BME280;10804;48.988;2.408;2022-12-18T11:03:33;101569.06;;;2.12;61.13
21290;BME280;10804;48.988;2.408;2022-12-18T11:06:04;101532.47;;;1.86;61.34
21290;BME280;10804;48.988;2.408;2022-12-18T11:08:34;101578.50;;;2.13;61.37
21290;BME280;10804;48.988;2.408;2022-12-18T11:11:02;101542.91;;;1.92;61.47
21290;BME280;10804;48.988;2.408;2022-12-18T11:13:32;101570.03;;;2.17;61.18
21290;BME280;10804;48.988;2.408;2022-12-18T11:16:00;101572.66;;;2.18;60.97
21290;BME280;10804;48.988;2.408;2022-12-18T11:18:29;101547.41;;;2.01;61.26
21290;BME280;10804;48.988;2.408;2022-12-18T11:20:59;101568.44;;;2.23;61.31
21290;BME280;10804;48.988;2.408;2022-12-18T11:23:30;101533.00;;;2.09;61.11
21290;BME280;10804;48.988;2.408;2022-12-18T11:26:03;101558.06;;;2.19;61.09
21290;BME280;10804;48.988;2.408;2022-12-18T11:28:38;101556.59;;;2.30;60.96
21290;BME280;10804;48.988;2.408;2022-12-18T11:31:17;101534.03;;;2.17;61.19
21290;BME280;10804;48.988;2.408;2022-12-18T11:33:49;101559.97;;;2.29;61.24
21290;BME280;10804;48.988;2.408;2022-12-18T11:36:18;101516.78;;;2.13;61.35
21290;BME280;10804;48.988;2.408;2022-12-18T11:38:48;101515.97;;;2.15;61.15
21290;BME280;10804;48.988;2.408;2022-12-18T11:41:24;101539.59;;;2.38;60.86
21290;BME280;10804;48.988;2.408;2022-12-18T11:44:16;101537.94;;;2.40;60.91
21290;BME280;10804;48.988;2.408;2022-12-18T11:46:51;101532.81;;;2.43;61.27
21290;BME280;10804;48.988;2.408;2022-12-18T11:49:22;101513.69;;;2.30;60.93
21290;BME280;10804;48.988;2.408;2022-12-18T11:51:55;101530.34;;;2.46;60.98
21290;BME280;10804;48.988;2.408;2022-12-18T11:54:25;101524.19;;;2.39;61.23
21290;BME280;10804;48.988;2.408;2022-12-18T11:56:58;101490.41;;;2.23;60.86
21290;BME280;10804;48.988;2.408;2022-12-18T11:59:34;101512.19;;;2.40;61.06
21290;BME280;10804;48.988;2.408;2022-12-18T12:02:31;101511.47;;;2.47;61.19
21290;BME280;10804;48.988;2.408;2022-12-18T12:05:11;101512.50;;;2.55;60.98
21290;BME280;10804;48.988;2.408;2022-12-18T12:07:46;101512.41;;;2.52;60.91
21290;BME280;10804;48.988;2.408;2022-12-18T12:10:26;101516.78;;;2.56;60.89
21290;BME280;10804;48.988;2.408;2022-12-18T12:13:10;101511.59;;;2.54;60.88
21290;BME280;10804;48.988;2.408;2022-12-18T12:15:50;101505.59;;;2.54;60.78
21290;BME280;10804;48.988;2.408;2022-12-18T12:18:31;101502.28;;;2.59;60.80
21290;BME280;10804;48.988;2.408;2022-12-18T12:21:09;101504.09;;;2.65;61.01
21290;BME280;10804;48.988;2.408;2022-12-18T12:23:50;101491.22;;;2.65;61.04
21290;BME280;10804;48.988;2.408;2022-12-18T12:26:27;101477.25;;;2.52;61.03
21290;BME280;10804;48.988;2.408;2022-12-18T12:29:27;101427.94;;;2.30;60.76
21290;BME280;10804;48.988;2.408;2022-12-18T12:32:21;101483.56;;;2.68;60.98
21290;BME280;10804;48.988;2.408;2022-12-18T12:35:18;101476.72;;;2.70;60.63
21290;BME280;10804;48.988;2.408;2022-12-18T12:38:10;101469.03;;;2.73;60.58
21290;BME280;10804;48.988;2.408;2022-12-18T12:41:00;101474.19;;;2.71;61.14
21290;BME280;10804;48.988;2.408;2022-12-18T12:43:49;101464.69;;;2.70;61.24
21290;BME280;10804;48.988;2.408;2022-12-18T12:46:39;101452.56;;;2.62;61.20
21290;BME280;10804;48.988;2.408;2022-12-18T12:49:31;101472.53;;;2.76;61.13
21290;BME280;10804;48.988;2.408;2022-12-18T12:52:27;101469.19;;;2.80;61.22
21290;BME280;10804;48.988;2.408;2022-12-18T12:55:17;101461.47;;;2.82;60.81
21290;BME280;10804;48.988;2.408;2022-12-18T12:58:10;101470.97;;;2.84;60.45
21290;BME280;10804;48.988;2.408;2022-12-18T13:01:09;101464.13;;;2.86;60.73
21290;BME280;10804;48.988;2.408;2022-12-18T13:04:03;101467.63;;;2.88;60.72
21290;BME280;10804;48.988;2.408;2022-12-18T13:06:59;101470.19;;;2.88;60.72
21290;BME280;10804;48.988;2.408;2022-12-18T13:10:14;101462.50;;;2.91;60.72
21290;BME280;10804;48.988;2.408;2022-12-18T13:13:11;101439.38;;;2.94;60.77
21290;BME280;10804;48.988;2.408;2022-12-18T13:16:04;101446.22;;;2.94;60.89
21290;BME280;10804;48.988;2.408;2022-12-18T13:18:33;101447.13;;;2.96;61.06
21290;BME280;10804;48.988;2.408;2022-12-18T13:21:10;101453.16;;;2.98;61.16
21290;BME280;10804;48.988;2.408;2022-12-18T13:23:43;101446.34;;;3.00;60.84
21290;BME280;10804;48.988;2.408;2022-12-18T13:26:31;101421.34;;;2.94;60.80
21290;BME280;10804;48.988;2.408;2022-12-18T13:29:00;101428.25;;;2.97;61.28